sensor_id;sensor_type;location;lat;lon;timestamp;P1;durP1;ratioP1;P2;durP2;ratioP2
75716;SDS011;64333;50.138;14.332;2023-02-15T00:01:33;35.97;;;16.73;;
75716;SDS011;64333;50.138;14.332;2023-02-15T00:03:59;36.22;;;17.30;;
75716;SDS011;64333;50.138;14.332;2023-02-15T00:06:24;32.35;;;16.35;;
75716;SDS011;64333;50.138;14.332;2023-02-15T00:08:50;39.05;;;18.48;;
75716;SDS011;64333;50.138;14.332;2023-02-15T00:11:16;33.95;;;16.88;;
75716;SDS011;64333;50.138;14.332;2023-02-15T00:14:01;30.88;;;14.80;;
75716;SDS011;64333;50.138;14.332;2023-02-15T00:16:27;30.80;;;15.40;;
75716;SDS011;64333;50.138;14.332;2023-02-15T00:18:52;37.50;;;16.40;;
75716;SDS011;64333;50.138;14.332;2023-02-15T00:21:18;33.58;;;16.20;;
75716;SDS011;64333;50.138;14.332;2023-02-15T00:23:43;33.25;;;16.92;;
75716;SDS011;64333;50.138;14.332;2023-02-15T00:26:09;34.80;;;15.80;;
75716;SDS011;64333;50.138;14.332;2023-02-15T00:28:36;33.67;;;16.00;;
75716;SDS011;64333;50.138;14.332;2023-02-15T00:31:06;35.03;;;17.77;;
75716;SDS011;64333;50.138;14.332;2023-02-15T00:33:36;38.67;;;18.02;;
75716;SDS011;64333;50.138;14.332;2023-02-15T00:36:02;37.03;;;17.42;;
75716;SDS011;64333;50.138;14.332;2023-02-15T00:38:29;46.42;;;20.70;;
75716;SDS011;64333;50.138;14.332;2023-02-15T00:40:56;42.92;;;18.67;;
75716;SDS011;64333;50.138;14.332;2023-02-15T00:43:23;38.72;;;19.05;;
75716;SDS011;64333;50.138;14.332;2023-02-15T00:45:50;38.50;;;17.67;;
75716;SDS011;64333;50.138;14.332;2023-02-15T00:48:15;44.00;;;18.90;;
75716;SDS011;64333;50.138;14.332;2023-02-15T00:50:41;34.53;;;16.38;;
75716;SDS011;64333;50.138;14.332;2023-02-15T00:53:06;37.67;;;19.30;;
75716;SDS011;64333;50.138;14.332;2023-02-15T00:55:32;36.78;;;16.83;;
75716;SDS011;64333;50.138;14.332;2023-02-15T00:57:58;42.30;;;19.27;;
75716;SDS011;64333;50.138;14.332;2023-02-15T01:00:23;38.00;;;16.92;;
75716;SDS011;64333;50.138;14.332;2023-02-15T01:02:49;39.03;;;18.52;;
75716;SDS011;64333;50.138;14.332;2023-02-15T01:05:14;40.95;;;19.10;;
75716;SDS011;64333;50.138;14.332;2023-02-15T01:07:39;37.83;;;18.85;;
75716;SDS011;64333;50.138;14.332;2023-02-15T01:10:05;35.58;;;18.30;;
75716;SDS011;64333;50.138;14.332;2023-02-15T01:12:32;38.80;;;17.48;;
75716;SDS011;64333;50.138;14.332;2023-02-15T01:14:58;34.78;;;18.15;;
75716;SDS011;64333;50.138;14.332;2023-02-15T01:17:23;40.70;;;18.65;;
75716;SDS011;64333;50.138;14.332;2023-02-15T01:19:48;38.63;;;19.10;;
75716;SDS011;64333;50.138;14.332;2023-02-15T01:22:14;38.10;;;18.30;;
75716;SDS011;64333;50.138;14.332;2023-02-15T01:24:39;41.42;;;18.88;;
75716;SDS011;64333;50.138;14.332;2023-02-15T01:27:04;39.55;;;19.67;;
75716;SDS011;64333;50.138;14.332;2023-02-15T01:29:30;40.42;;;17.88;;
75716;SDS011;64333;50.138;14.332;2023-02-15T01:31:55;38.08;;;18.20;;
75716;SDS011;64333;50.138;14.332;2023-02-15T01:34:20;38.88;;;19.55;;
75716;SDS011;64333;50.138;14.332;2023-02-15T01:36:46;43.00;;;18.35;;
75716;SDS011;64333;50.138;14.332;2023-02-15T01:39:11;44.22;;;18.98;;
75716;SDS011;64333;50.138;14.332;2023-02-15T01:41:37;40.10;;;17.58;;
75716;SDS011;64333;50.138;14.332;2023-02-15T01:44:02;38.97;;;18.33;;
75716;SDS011;64333;50.138;14.332;2023-02-15T01:46:38;40.47;;;19.25;;
75716;SDS011;64333;50.138;14.332;2023-02-15T01:49:12;40.00;;;19.75;;
75716;SDS011;64333;50.138;14.332;2023-02-15T01:51:45;40.83;;;18.95;;
75716;SDS011;64333;50.138;14.332;2023-02-15T01:54:17;44.08;;;17.77;;
75716;SDS011;64333;50.138;14.332;2023-02-15T01:56:46;42.80;;;18.25;;
75716;SDS011;64333;50.138;14.332;2023-02-15T01:59:14;35.95;;;16.67;;
75716;SDS011;64333;50.138;14.332;2023-02-15T02:01:44;38.17;;;17.52;;
75716;SDS011;64333;50.138;14.332;2023-02-15T02:04:13;41.65;;;19.30;;
75716;SDS011;64333;50.138;14.332;2023-02-15T02:06:42;36.60;;;17.40;;
75716;SDS011;64333;50.138;14.332;2023-02-15T02:09:11;39.83;;;20.45;;
75716;SDS011;64333;50.138;14.332;2023-02-15T02:11:38;43.60;;;19.70;;
75716;SDS011;64333;50.138;14.332;2023-02-15T02:14:05;45.33;;;20.13;;
75716;SDS011;64333;50.138;14.332;2023-02-15T02:16:37;39.25;;;18.08;;
75716;SDS011;64333;50.138;14.332;2023-02-15T02:19:35;41.90;;;18.08;;
75716;SDS011;64333;50.138;14.332;2023-02-15T02:22:43;39.75;;;18.70;;
75716;SDS011;64333;50.138;14.332;2023-02-15T02:37:06;40.13;;;17.15;;
75716;SDS011;64333;50.138;14.332;2023-02-15T02:39:42;41.42;;;18.33;;
75716;SDS011;64333;50.138;14.332;2023-02-15T02:42:32;38.78;;;16.95;;
75716;SDS011;64333;50.138;14.332;2023-02-15T02:45:08;39.75;;;17.45;;
75716;SDS011;64333;50.138;14.332;2023-02-15T02:47:52;38.65;;;17.95;;
75716;SDS011;64333;50.138;14.332;2023-02-15T02:50:22;38.53;;;18.58;;
75716;SDS011;64333;50.138;14.332;2023-02-15T02:52:51;43.38;;;18.90;;
75716;SDS011;64333;50.138;14.332;2023-02-15T02:55:40;49.08;;;19.90;;
75716;SDS011;64333;50.138;14.332;2023-02-15T02:58:11;44.65;;;18.77;;
75716;SDS011;64333;50.138;14.332;2023-02-15T03:00:44;43.03;;;18.45;;
75716;SDS011;64333;50.138;14.332;2023-02-15T03:03:39;42.80;;;17.52;;
75716;SDS011;64333;50.138;14.332;2023-02-15T03:06:08;38.20;;;17.75;;
75716;SDS011;64333;50.138;14.332;2023-02-15T03:08:38;47.70;;;20.77;;
75716;SDS011;64333;50.138;14.332;2023-02-15T03:11:08;41.03;;;18.00;;
75716;SDS011;64333;50.138;14.332;2023-02-15T03:13:34;39.17;;;18.08;;
75716;SDS011;64333;50.138;14.332;2023-02-15T03:16:00;38.00;;;16.48;;
75716;SDS011;64333;50.138;14.332;2023-02-15T03:18:46;40.85;;;18.13;;
75716;SDS011;64333;50.138;14.332;2023-02-15T03:21:27;44.55;;;19.77;;
75716;SDS011;64333;50.138;14.332;2023-02-15T03:24:00;44.08;;;20.05;;
75716;SDS011;64333;50.138;14.332;2023-02-15T03:26:33;43.22;;;19.25;;
75716;SDS011;64333;50.138;14.332;2023-02-15T03:29:01;43.63;;;18.13;;
75716;SDS011;64333;50.138;14.332;2023-02-15T03:31:28;40.42;;;17.08;;
75716;SDS011;64333;50.138;14.332;2023-02-15T03:34:00;38.83;;;16.98;;
75716;SDS011;64333;50.138;14.332;2023-02-15T03:36:31;37.50;;;16.50;;
75716;SDS011;64333;50.138;14.332;2023-02-15T03:39:07;45.03;;;18.45;;
75716;SDS011;64333;50.138;14.332;2023-02-15T03:41:37;36.63;;;16.27;;
75716;SDS011;64333;50.138;14.332;2023-02-15T03:44:14;46.38;;;17.85;;
75716;SDS011;64333;50.138;14.332;2023-02-15T03:46:49;38.38;;;18.00;;
75716;SDS011;64333;50.138;14.332;2023-02-15T03:49:22;37.00;;;18.02;;
75716;SDS011;64333;50.138;14.332;2023-02-15T03:51:53;42.97;;;17.48;;
75716;SDS011;64333;50.138;14.332;2023-02-15T03:54:28;36.80;;;15.73;;
75716;SDS011;64333;50.138;14.332;2023-02-15T03:57:14;43.63;;;18.40;;
75716;SDS011;64333;50.138;14.332;2023-02-15T04:05:54;38.28;;;16.80;;
75716;SDS011;64333;50.138;14.332;2023-02-15T04:08:20;41.53;;;18.13;;
75716;SDS011;64333;50.138;14.332;2023-02-15T04:11:05;37.03;;;16.13;;
75716;SDS011;64333;50.138;14.332;2023-02-15T04:13:31;37.25;;;17.23;;
75716;SDS011;64333;50.138;14.332;2023-02-15T04:15:57;41.22;;;16.80;;
75716;SDS011;64333;50.138;14.332;2023-02-15T04:18:29;47.20;;;18.30;;
75716;SDS011;64333;50.138;14.332;2023-02-15T04:21:13;43.42;;;18.73;;
75716;SDS011;64333;50.138;14.332;2023-02-15T04:23:57;45.53;;;17.48;;
75716;SDS011;64333;50.138;14.332;2023-02-15T04:26:40;40.75;;;17.45;;
75716;SDS011;64333;50.138;14.332;2023-02-15T04:29:06;43.00;;;17.27;;
75716;SDS011;64333;50.138;14.332;2023-02-15T04:31:31;39.15;;;15.55;;
75716;SDS011;64333;50.138;14.332;2023-02-15T04:33:57;39.00;;;16.23;;
75716;SDS011;64333;50.138;14.332;2023-02-15T04:36:22;41.08;;;17.45;;
75716;SDS011;64333;50.138;14.332;2023-02-15T04:38:47;39.35;;;15.80;;
75716;SDS011;64333;50.138;14.332;2023-02-15T04:41:12;42.35;;;17.10;;
75716;SDS011;64333;50.138;14.332;2023-02-15T04:43:38;37.17;;;15.40;;
75716;SDS011;64333;50.138;14.332;2023-02-15T04:46:03;45.75;;;17.15;;
75716;SDS011;64333;50.138;14.332;2023-02-15T04:48:29;45.50;;;18.35;;
75716;SDS011;64333;50.138;14.332;2023-02-15T04:50:54;47.42;;;18.75;;
75716;SDS011;64333;50.138;14.332;2023-02-15T04:53:20;40.85;;;17.85;;
75716;SDS011;64333;50.138;14.332;2023-02-15T04:55:45;42.53;;;18.00;;
75716;SDS011;64333;50.138;14.332;2023-02-15T04:58:10;48.75;;;18.08;;
75716;SDS011;64333;50.138;14.332;2023-02-15T05:00:36;43.80;;;17.30;;
75716;SDS011;64333;50.138;14.332;2023-02-15T05:03:01;44.85;;;17.50;;
75716;SDS011;64333;50.138;14.332;2023-02-15T05:05:27;40.75;;;16.05;;
75716;SDS011;64333;50.138;14.332;2023-02-15T05:07:52;39.08;;;14.98;;
75716;SDS011;64333;50.138;14.332;2023-02-15T05:10:17;42.55;;;17.48;;
75716;SDS011;64333;50.138;14.332;2023-02-15T05:12:43;41.92;;;16.38;;
75716;SDS011;64333;50.138;14.332;2023-02-15T05:15:08;46.40;;;17.05;;
75716;SDS011;64333;50.138;14.332;2023-02-15T05:17:34;48.58;;;17.73;;
75716;SDS011;64333;50.138;14.332;2023-02-15T05:19:59;46.72;;;17.02;;
75716;SDS011;64333;50.138;14.332;2023-02-15T05:22:24;40.85;;;17.38;;
75716;SDS011;64333;50.138;14.332;2023-02-15T05:24:50;44.85;;;17.10;;
75716;SDS011;64333;50.138;14.332;2023-02-15T05:27:34;45.42;;;17.17;;
75716;SDS011;64333;50.138;14.332;2023-02-15T05:30:18;45.08;;;16.40;;
75716;SDS011;64333;50.138;14.332;2023-02-15T05:32:43;47.30;;;16.48;;
75716;SDS011;64333;50.138;14.332;2023-02-15T05:35:12;43.80;;;16.73;;
75716;SDS011;64333;50.138;14.332;2023-02-15T05:37:39;42.55;;;16.88;;
75716;SDS011;64333;50.138;14.332;2023-02-15T05:40:04;46.55;;;18.60;;
75716;SDS011;64333;50.138;14.332;2023-02-15T05:42:30;47.38;;;16.52;;
75716;SDS011;64333;50.138;14.332;2023-02-15T05:44:56;44.42;;;17.35;;
75716;SDS011;64333;50.138;14.332;2023-02-15T05:47:21;42.38;;;17.98;;
75716;SDS011;64333;50.138;14.332;2023-02-15T05:49:46;41.13;;;16.70;;
75716;SDS011;64333;50.138;14.332;2023-02-15T05:52:12;45.40;;;18.20;;
75716;SDS011;64333;50.138;14.332;2023-02-15T05:54:37;47.55;;;17.70;;
75716;SDS011;64333;50.138;14.332;2023-02-15T05:57:02;44.90;;;17.83;;
75716;SDS011;64333;50.138;14.332;2023-02-15T05:59:28;51.17;;;18.65;;
75716;SDS011;64333;50.138;14.332;2023-02-15T06:01:53;45.47;;;16.75;;
75716;SDS011;64333;50.138;14.332;2023-02-15T06:04:18;43.63;;;16.45;;
75716;SDS011;64333;50.138;14.332;2023-02-15T06:06:44;47.55;;;17.05;;
75716;SDS011;64333;50.138;14.332;2023-02-15T06:09:10;53.67;;;19.98;;
75716;SDS011;64333;50.138;14.332;2023-02-15T06:11:37;45.97;;;16.98;;
75716;SDS011;64333;50.138;14.332;2023-02-15T06:14:02;45.97;;;16.45;;
75716;SDS011;64333;50.138;14.332;2023-02-15T06:16:28;42.65;;;15.80;;
75716;SDS011;64333;50.138;14.332;2023-02-15T06:18:53;48.13;;;17.42;;
75716;SDS011;64333;50.138;14.332;2023-02-15T06:21:18;43.50;;;16.10;;
75716;SDS011;64333;50.138;14.332;2023-02-15T06:23:44;45.42;;;16.23;;
75716;SDS011;64333;50.138;14.332;2023-02-15T06:26:09;41.92;;;17.52;;
75716;SDS011;64333;50.138;14.332;2023-02-15T06:28:34;48.63;;;18.23;;
75716;SDS011;64333;50.138;14.332;2023-02-15T06:31:02;41.80;;;17.80;;
75716;SDS011;64333;50.138;14.332;2023-02-15T06:33:27;48.22;;;17.67;;
75716;SDS011;64333;50.138;14.332;2023-02-15T06:35:55;47.97;;;18.42;;
75716;SDS011;64333;50.138;14.332;2023-02-15T06:38:20;49.65;;;17.60;;
75716;SDS011;64333;50.138;14.332;2023-02-15T06:40:46;50.13;;;19.27;;
75716;SDS011;64333;50.138;14.332;2023-02-15T06:43:11;40.10;;;14.82;;
75716;SDS011;64333;50.138;14.332;2023-02-15T06:45:36;47.47;;;19.45;;
75716;SDS011;64333;50.138;14.332;2023-02-15T06:48:02;52.80;;;17.98;;
75716;SDS011;64333;50.138;14.332;2023-02-15T06:50:27;48.67;;;18.15;;
75716;SDS011;64333;50.138;14.332;2023-02-15T06:52:56;51.63;;;16.60;;
75716;SDS011;64333;50.138;14.332;2023-02-15T06:55:22;45.03;;;16.17;;
75716;SDS011;64333;50.138;14.332;2023-02-15T06:57:47;57.15;;;20.80;;
75716;SDS011;64333;50.138;14.332;2023-02-15T07:00:13;51.60;;;18.27;;
75716;SDS011;64333;50.138;14.332;2023-02-15T07:02:39;49.40;;;17.45;;
75716;SDS011;64333;50.138;14.332;2023-02-15T07:05:04;51.00;;;17.85;;
75716;SDS011;64333;50.138;14.332;2023-02-15T07:07:30;45.85;;;17.95;;
75716;SDS011;64333;50.138;14.332;2023-02-15T07:09:55;49.25;;;18.60;;
75716;SDS011;64333;50.138;14.332;2023-02-15T07:12:20;58.08;;;22.27;;
75716;SDS011;64333;50.138;14.332;2023-02-15T07:17:31;47.58;;;18.08;;
75716;SDS011;64333;50.138;14.332;2023-02-15T07:19:56;59.85;;;20.73;;
75716;SDS011;64333;50.138;14.332;2023-02-15T07:22:21;45.25;;;14.65;;
75716;SDS011;64333;50.138;14.332;2023-02-15T07:24:47;42.40;;;15.52;;
75716;SDS011;64333;50.138;14.332;2023-02-15T07:27:14;45.88;;;15.63;;
75716;SDS011;64333;50.138;14.332;2023-02-15T07:29:39;44.95;;;15.00;;
75716;SDS011;64333;50.138;14.332;2023-02-15T07:32:05;48.95;;;16.73;;
75716;SDS011;64333;50.138;14.332;2023-02-15T07:34:30;58.35;;;18.35;;
75716;SDS011;64333;50.138;14.332;2023-02-15T07:36:56;55.00;;;17.75;;
75716;SDS011;64333;50.138;14.332;2023-02-15T07:39:21;46.10;;;14.95;;
75716;SDS011;64333;50.138;14.332;2023-02-15T07:41:47;44.80;;;14.73;;
75716;SDS011;64333;50.138;14.332;2023-02-15T07:44:13;47.70;;;15.13;;
75716;SDS011;64333;50.138;14.332;2023-02-15T07:46:39;52.92;;;18.17;;
75716;SDS011;64333;50.138;14.332;2023-02-15T07:49:04;50.13;;;18.00;;
75716;SDS011;64333;50.138;14.332;2023-02-15T07:51:30;47.83;;;16.25;;
75716;SDS011;64333;50.138;14.332;2023-02-15T07:53:55;48.08;;;17.77;;
75716;SDS011;64333;50.138;14.332;2023-02-15T07:56:20;43.33;;;16.55;;
75716;SDS011;64333;50.138;14.332;2023-02-15T07:58:46;43.08;;;15.77;;
75716;SDS011;64333;50.138;14.332;2023-02-15T08:01:36;41.30;;;15.18;;
75716;SDS011;64333;50.138;14.332;2023-02-15T08:04:04;42.05;;;15.45;;
75716;SDS011;64333;50.138;14.332;2023-02-15T08:06:32;39.28;;;14.38;;
75716;SDS011;64333;50.138;14.332;2023-02-15T08:08:59;43.42;;;15.48;;
75716;SDS011;64333;50.138;14.332;2023-02-15T08:11:27;44.97;;;17.20;;
75716;SDS011;64333;50.138;14.332;2023-02-15T08:13:58;38.20;;;15.50;;
75716;SDS011;64333;50.138;14.332;2023-02-15T08:19:03;40.17;;;15.07;;
75716;SDS011;64333;50.138;14.332;2023-02-15T08:21:31;43.72;;;15.52;;
75716;SDS011;64333;50.138;14.332;2023-02-15T08:23:58;38.05;;;13.05;;
75716;SDS011;64333;50.138;14.332;2023-02-15T08:26:24;41.85;;;15.68;;
75716;SDS011;64333;50.138;14.332;2023-02-15T08:28:51;39.55;;;14.63;;
75716;SDS011;64333;50.138;14.332;2023-02-15T08:31:16;34.45;;;13.70;;
75716;SDS011;64333;50.138;14.332;2023-02-15T08:33:43;35.97;;;13.38;;
75716;SDS011;64333;50.138;14.332;2023-02-15T08:36:10;31.58;;;11.68;;
75716;SDS011;64333;50.138;14.332;2023-02-15T08:38:37;35.30;;;12.98;;
75716;SDS011;64333;50.138;14.332;2023-02-15T08:41:17;36.63;;;15.95;;
75716;SDS011;64333;50.138;14.332;2023-02-15T08:43:51;29.85;;;13.05;;
75716;SDS011;64333;50.138;14.332;2023-02-15T08:46:18;37.53;;;12.90;;
75716;SDS011;64333;50.138;14.332;2023-02-15T08:48:45;35.80;;;13.63;;
75716;SDS011;64333;50.138;14.332;2023-02-15T08:51:14;30.55;;;13.40;;
75716;SDS011;64333;50.138;14.332;2023-02-15T08:53:42;34.72;;;11.82;;
75716;SDS011;64333;50.138;14.332;2023-02-15T08:56:09;33.50;;;13.85;;
75716;SDS011;64333;50.138;14.332;2023-02-15T08:58:36;30.88;;;11.77;;
75716;SDS011;64333;50.138;14.332;2023-02-15T09:01:07;34.70;;;14.00;;
75716;SDS011;64333;50.138;14.332;2023-02-15T09:03:34;34.58;;;13.00;;
75716;SDS011;64333;50.138;14.332;2023-02-15T09:05:59;30.88;;;12.60;;
75716;SDS011;64333;50.138;14.332;2023-02-15T09:08:26;33.33;;;14.02;;
75716;SDS011;64333;50.138;14.332;2023-02-15T09:10:52;31.00;;;13.38;;
75716;SDS011;64333;50.138;14.332;2023-02-15T09:13:18;32.13;;;12.25;;
75716;SDS011;64333;50.138;14.332;2023-02-15T09:15:45;30.23;;;12.30;;
75716;SDS011;64333;50.138;14.332;2023-02-15T09:18:10;34.03;;;13.00;;
75716;SDS011;64333;50.138;14.332;2023-02-15T09:20:37;30.40;;;12.55;;
75716;SDS011;64333;50.138;14.332;2023-02-15T09:23:02;29.35;;;11.48;;
75716;SDS011;64333;50.138;14.332;2023-02-15T09:25:28;34.65;;;12.77;;
75716;SDS011;64333;50.138;14.332;2023-02-15T09:27:53;26.65;;;11.60;;
75716;SDS011;64333;50.138;14.332;2023-02-15T09:30:19;35.10;;;12.75;;
75716;SDS011;64333;50.138;14.332;2023-02-15T09:32:44;30.42;;;11.77;;
75716;SDS011;64333;50.138;14.332;2023-02-15T09:35:11;24.83;;;10.95;;
75716;SDS011;64333;50.138;14.332;2023-02-15T09:37:37;29.92;;;11.70;;
75716;SDS011;64333;50.138;14.332;2023-02-15T09:40:03;28.13;;;11.55;;
75716;SDS011;64333;50.138;14.332;2023-02-15T09:45:30;33.05;;;12.80;;
75716;SDS011;64333;50.138;14.332;2023-02-15T09:51:05;37.80;;;14.43;;
75716;SDS011;64333;50.138;14.332;2023-02-15T09:53:51;39.08;;;14.52;;
75716;SDS011;64333;50.138;14.332;2023-02-15T09:56:30;34.88;;;14.15;;
75716;SDS011;64333;50.138;14.332;2023-02-15T09:59:11;41.55;;;17.95;;
75716;SDS011;64333;50.138;14.332;2023-02-15T10:14:13;49.53;;;16.30;;
75716;SDS011;64333;50.138;14.332;2023-02-15T10:27:47;34.17;;;13.27;;
75716;SDS011;64333;50.138;14.332;2023-02-15T10:32:57;32.13;;;12.18;;
75716;SDS011;64333;50.138;14.332;2023-02-15T10:35:32;33.17;;;13.70;;
75716;SDS011;64333;50.138;14.332;2023-02-15T10:57:33;29.45;;;12.77;;
75716;SDS011;64333;50.138;14.332;2023-02-15T11:00:18;36.78;;;14.10;;
75716;SDS011;64333;50.138;14.332;2023-02-15T11:08:38;33.92;;;13.50;;
75716;SDS011;64333;50.138;14.332;2023-02-15T11:11:09;29.05;;;12.13;;
75716;SDS011;64333;50.138;14.332;2023-02-15T11:13:48;29.35;;;13.30;;
75716;SDS011;64333;50.138;14.332;2023-02-15T11:16:26;31.75;;;12.77;;
75716;SDS011;64333;50.138;14.332;2023-02-15T11:19:01;32.42;;;11.85;;
75716;SDS011;64333;50.138;14.332;2023-02-15T11:21:37;34.53;;;14.20;;
75716;SDS011;64333;50.138;14.332;2023-02-15T11:24:17;33.72;;;14.43;;
75716;SDS011;64333;50.138;14.332;2023-02-15T11:32:13;32.15;;;12.57;;
75716;SDS011;64333;50.138;14.332;2023-02-15T11:40:44;34.15;;;12.88;;
75716;SDS011;64333;50.138;14.332;2023-02-15T11:46:11;31.42;;;13.05;;
75716;SDS011;64333;50.138;14.332;2023-02-15T11:48:37;31.55;;;13.07;;
75716;SDS011;64333;50.138;14.332;2023-02-15T11:51:04;30.35;;;14.13;;
75716;SDS011;64333;50.138;14.332;2023-02-15T11:53:32;29.27;;;13.48;;
75716;SDS011;64333;50.138;14.332;2023-02-15T11:56:02;32.45;;;13.85;;
75716;SDS011;64333;50.138;14.332;2023-02-15T12:01:45;33.67;;;13.90;;
75716;SDS011;64333;50.138;14.332;2023-02-15T12:12:21;28.38;;;13.02;;
75716;SDS011;64333;50.138;14.332;2023-02-15T12:14:55;28.20;;;11.70;;
75716;SDS011;64333;50.138;14.332;2023-02-15T12:17:23;26.40;;;12.20;;
75716;SDS011;64333;50.138;14.332;2023-02-15T12:19:52;28.48;;;13.05;;
75716;SDS011;64333;50.138;14.332;2023-02-15T12:24:50;25.73;;;12.23;;
75716;SDS011;64333;50.138;14.332;2023-02-15T12:27:20;30.08;;;12.57;;
75716;SDS011;64333;50.138;14.332;2023-02-15T12:32:17;30.17;;;14.20;;
75716;SDS011;64333;50.138;14.332;2023-02-15T12:34:47;30.52;;;12.93;;
75716;SDS011;64333;50.138;14.332;2023-02-15T12:37:17;31.70;;;13.57;;
75716;SDS011;64333;50.138;14.332;2023-02-15T12:39:52;29.85;;;12.95;;
75716;SDS011;64333;50.138;14.332;2023-02-15T12:42:20;31.67;;;13.75;;
75716;SDS011;64333;50.138;14.332;2023-02-15T12:44:59;33.55;;;15.40;;
75716;SDS011;64333;50.138;14.332;2023-02-15T12:47:28;31.45;;;13.43;;
75716;SDS011;64333;50.138;14.332;2023-02-15T12:52:41;31.35;;;14.27;;
75716;SDS011;64333;50.138;14.332;2023-02-15T12:55:27;31.50;;;14.18;;
75716;SDS011;64333;50.138;14.332;2023-02-15T12:58:12;34.45;;;14.40;;
75716;SDS011;64333;50.138;14.332;2023-02-15T13:00:42;33.58;;;15.43;;
75716;SDS011;64333;50.138;14.332;2023-02-15T13:03:15;29.45;;;13.75;;
75716;SDS011;64333;50.138;14.332;2023-02-15T13:05:44;38.33;;;16.17;;
75716;SDS011;64333;50.138;14.332;2023-02-15T13:10:41;33.72;;;14.70;;
75716;SDS011;64333;50.138;14.332;2023-02-15T13:13:18;28.23;;;13.77;;
75716;SDS011;64333;50.138;14.332;2023-02-15T13:15:48;30.80;;;13.38;;
75716;SDS011;64333;50.138;14.332;2023-02-15T13:18:17;32.75;;;14.65;;
75716;SDS011;64333;50.138;14.332;2023-02-15T13:20:48;31.58;;;14.27;;
75716;SDS011;64333;50.138;14.332;2023-02-15T13:25:54;37.13;;;15.25;;
75716;SDS011;64333;50.138;14.332;2023-02-15T13:28:24;30.33;;;13.77;;
75716;SDS011;64333;50.138;14.332;2023-02-15T13:30:57;30.08;;;13.73;;
75716;SDS011;64333;50.138;14.332;2023-02-15T13:33:33;32.60;;;14.35;;
75716;SDS011;64333;50.138;14.332;2023-02-15T13:39:03;30.35;;;14.75;;
75716;SDS011;64333;50.138;14.332;2023-02-15T13:41:33;28.55;;;15.07;;
75716;SDS011;64333;50.138;14.332;2023-02-15T13:44:13;32.70;;;14.77;;
75716;SDS011;64333;50.138;14.332;2023-02-15T13:52:08;32.63;;;14.18;;
75716;SDS011;64333;50.138;14.332;2023-02-15T14:00:26;28.23;;;13.68;;
75716;SDS011;64333;50.138;14.332;2023-02-15T14:08:04;32.55;;;14.63;;
75716;SDS011;64333;50.138;14.332;2023-02-15T14:16:19;27.60;;;13.57;;
75716;SDS011;64333;50.138;14.332;2023-02-15T14:19:03;28.58;;;13.60;;
75716;SDS011;64333;50.138;14.332;2023-02-15T14:21:47;30.00;;;13.93;;
75716;SDS011;64333;50.138;14.332;2023-02-15T14:30:14;33.13;;;13.93;;
75716;SDS011;64333;50.138;14.332;2023-02-15T14:32:16;30.40;;;13.98;;
75716;SDS011;64333;50.138;14.332;2023-02-15T14:34:46;29.25;;;13.55;;
75716;SDS011;64333;50.138;14.332;2023-02-15T14:37:18;27.15;;;13.88;;
75716;SDS011;64333;50.138;14.332;2023-02-15T14:40:10;28.38;;;12.75;;
75716;SDS011;64333;50.138;14.332;2023-02-15T14:43:17;28.60;;;13.45;;
75716;SDS011;64333;50.138;14.332;2023-02-15T14:45:49;26.83;;;12.38;;
75716;SDS011;64333;50.138;14.332;2023-02-15T14:48:25;28.00;;;12.57;;
75716;SDS011;64333;50.138;14.332;2023-02-15T14:50:55;26.83;;;12.57;;
75716;SDS011;64333;50.138;14.332;2023-02-15T14:58:37;25.02;;;12.30;;
75716;SDS011;64333;50.138;14.332;2023-02-15T15:01:07;30.75;;;13.43;;
75716;SDS011;64333;50.138;14.332;2023-02-15T15:03:35;30.17;;;13.95;;
75716;SDS011;64333;50.138;14.332;2023-02-15T15:06:02;24.48;;;12.27;;
75716;SDS011;64333;50.138;14.332;2023-02-15T15:08:39;30.58;;;13.98;;
75716;SDS011;64333;50.138;14.332;2023-02-15T15:14:10;27.67;;;13.52;;
75716;SDS011;64333;50.138;14.332;2023-02-15T15:19:09;28.17;;;13.57;;
75716;SDS011;64333;50.138;14.332;2023-02-15T15:22:11;23.98;;;12.30;;
75716;SDS011;64333;50.138;14.332;2023-02-15T15:38:55;31.17;;;15.55;;
75716;SDS011;64333;50.138;14.332;2023-02-15T15:49:44;26.08;;;13.10;;
75716;SDS011;64333;50.138;14.332;2023-02-15T15:52:13;34.72;;;13.65;;
75716;SDS011;64333;50.138;14.332;2023-02-15T15:54:41;28.50;;;13.13;;
75716;SDS011;64333;50.138;14.332;2023-02-15T15:57:41;33.35;;;14.48;;
75716;SDS011;64333;50.138;14.332;2023-02-15T16:00:03;30.27;;;13.05;;
75716;SDS011;64333;50.138;14.332;2023-02-15T16:02:29;31.35;;;14.45;;
75716;SDS011;64333;50.138;14.332;2023-02-15T16:05:04;27.67;;;12.93;;
75716;SDS011;64333;50.138;14.332;2023-02-15T16:07:32;34.10;;;14.75;;
75716;SDS011;64333;50.138;14.332;2023-02-15T16:09:58;38.97;;;15.10;;
75716;SDS011;64333;50.138;14.332;2023-02-15T16:12:27;34.88;;;14.88;;
75716;SDS011;64333;50.138;14.332;2023-02-15T16:14:55;32.53;;;14.90;;
75716;SDS011;64333;50.138;14.332;2023-02-15T16:17:25;36.92;;;15.27;;
75716;SDS011;64333;50.138;14.332;2023-02-15T16:20:01;31.95;;;13.70;;
75716;SDS011;64333;50.138;14.332;2023-02-15T16:22:32;32.17;;;15.75;;
75716;SDS011;64333;50.138;14.332;2023-02-15T16:27:42;38.33;;;17.30;;
75716;SDS011;64333;50.138;14.332;2023-02-15T16:30:25;36.78;;;17.85;;
75716;SDS011;64333;50.138;14.332;2023-02-15T16:32:55;54.03;;;24.15;;
75716;SDS011;64333;50.138;14.332;2023-02-15T16:35:28;50.92;;;21.88;;
75716;SDS011;64333;50.138;14.332;2023-02-15T16:37:54;37.35;;;18.23;;
75716;SDS011;64333;50.138;14.332;2023-02-15T16:42:47;48.28;;;21.20;;
75716;SDS011;64333;50.138;14.332;2023-02-15T16:45:14;52.47;;;22.38;;
75716;SDS011;64333;50.138;14.332;2023-02-15T16:47:43;60.85;;;24.90;;
75716;SDS011;64333;50.138;14.332;2023-02-15T16:50:22;53.40;;;20.27;;
75716;SDS011;64333;50.138;14.332;2023-02-15T16:52:54;49.83;;;19.30;;
75716;SDS011;64333;50.138;14.332;2023-02-15T16:55:22;48.97;;;21.90;;
75716;SDS011;64333;50.138;14.332;2023-02-15T16:58:00;50.67;;;21.65;;
75716;SDS011;64333;50.138;14.332;2023-02-15T17:00:30;49.95;;;21.15;;
75716;SDS011;64333;50.138;14.332;2023-02-15T17:03:00;60.63;;;27.40;;
75716;SDS011;64333;50.138;14.332;2023-02-15T17:05:31;51.80;;;21.38;;
75716;SDS011;64333;50.138;14.332;2023-02-15T17:10:36;60.45;;;23.30;;
75716;SDS011;64333;50.138;14.332;2023-02-15T17:13:13;58.55;;;24.60;;
75716;SDS011;64333;50.138;14.332;2023-02-15T17:15:41;77.60;;;39.00;;
75716;SDS011;64333;50.138;14.332;2023-02-15T17:18:21;56.35;;;25.48;;
75716;SDS011;64333;50.138;14.332;2023-02-15T17:20:48;56.80;;;24.75;;
75716;SDS011;64333;50.138;14.332;2023-02-15T17:28:45;73.00;;;28.55;;
75716;SDS011;64333;50.138;14.332;2023-02-15T17:31:13;76.47;;;29.52;;
75716;SDS011;64333;50.138;14.332;2023-02-15T17:33:41;86.20;;;29.52;;
75716;SDS011;64333;50.138;14.332;2023-02-15T17:36:08;85.55;;;29.95;;
75716;SDS011;64333;50.138;14.332;2023-02-15T17:38:40;94.22;;;31.13;;
75716;SDS011;64333;50.138;14.332;2023-02-15T17:41:28;85.68;;;27.88;;